createdAt,value
2019-01-24T00:00:40.852Z,-0.96
2019-01-24T00:03:08.083Z,-1.20
2019-01-24T00:05:35.354Z,-1.37
2019-01-24T00:08:02.703Z,-1.24
2019-01-24T00:10:30.052Z,-1.20
2019-01-24T00:12:57.332Z,-1.12
2019-01-24T00:15:24.596Z,-1.09
2019-01-24T00:17:51.810Z,-1.03
2019-01-24T00:20:19.165Z,-0.99
2019-01-24T00:22:46.380Z,-1.11
2019-01-24T00:25:13.593Z,-1.30
2019-01-24T00:27:40.850Z,-1.16
2019-01-24T00:30:09.029Z,-1.11
2019-01-24T00:32:36.297Z,-0.99
2019-01-24T00:35:04.149Z,-0.97
2019-01-24T00:37:31.374Z,-1.06
2019-01-24T00:39:58.596Z,-1.02
2019-01-24T00:42:25.798Z,-0.95
2019-01-24T00:44:53.071Z,-0.91
2019-01-24T00:47:20.271Z,-1.11
2019-01-24T00:49:47.491Z,-1.44
2019-01-24T00:52:14.779Z,-1.68
2019-01-24T00:54:42.018Z,-2.26
2019-01-24T00:57:09.219Z,-1.97
2019-01-24T00:59:36.783Z,-1.62
2019-01-24T01:02:04.072Z,-1.58
2019-01-24T01:04:31.483Z,-2.00
2019-01-24T01:06:58.790Z,-2.17
2019-01-24T01:09:25.984Z,-2.12
2019-01-24T01:11:53.195Z,-1.84
2019-01-24T01:14:20.424Z,-2.18
2019-01-24T01:16:47.745Z,-2.03
2019-01-24T01:19:14.940Z,-2.00
2019-01-24T01:21:42.175Z,-1.88
2019-01-24T01:24:09.557Z,-1.90
2019-01-24T01:26:36.811Z,-1.78
2019-01-24T01:29:04.370Z,-1.79
2019-01-24T01:31:31.589Z,-1.75
2019-01-24T01:33:58.911Z,-1.77
2019-01-24T01:36:26.174Z,-2.58
2019-01-24T01:38:53.408Z,-2.26
2019-01-24T01:41:20.684Z,-2.67
2019-01-24T01:43:47.927Z,-2.71
2019-01-24T01:46:15.130Z,-2.84
2019-01-24T01:48:42.455Z,-2.86
2019-01-24T01:51:09.697Z,-2.65
2019-01-24T01:53:36.926Z,-2.92
2019-01-24T01:56:04.196Z,-3.15
2019-01-24T01:58:31.415Z,-3.27
2019-01-24T02:00:58.654Z,-3.09
2019-01-24T02:03:25.868Z,-2.77
2019-01-24T02:05:53.113Z,-2.73
2019-01-24T02:08:20.383Z,-2.70
2019-01-24T02:10:47.669Z,-2.65
2019-01-24T02:13:14.890Z,-3.09
2019-01-24T02:15:42.102Z,-3.00
2019-01-24T02:18:09.563Z,-2.81
2019-01-24T02:20:36.771Z,-3.07
2019-01-24T02:23:04.400Z,-3.15
2019-01-24T02:25:31.766Z,-3.53
2019-01-24T02:27:58.994Z,-3.27
2019-01-24T02:30:27.871Z,-2.92
2019-01-24T02:32:55.598Z,-3.22
2019-01-24T02:35:22.808Z,-3.03
2019-01-24T02:37:50.133Z,-2.92
2019-01-24T02:40:17.413Z,-2.73
2019-01-24T02:42:44.734Z,-2.45
2019-01-24T02:45:13.363Z,-2.44
2019-01-24T02:47:40.603Z,-2.35
2019-01-24T02:50:10.114Z,-2.26
2019-01-24T02:52:37.358Z,-2.11
2019-01-24T02:55:06.380Z,-1.94
2019-01-24T02:57:33.628Z,-1.91
2019-01-24T03:00:00.862Z,-2.08
2019-01-24T03:02:28.107Z,-1.92
2019-01-24T03:04:57.046Z,-1.86
2019-01-24T03:07:24.504Z,-2.24
2019-01-24T03:09:51.732Z,-2.47
2019-01-24T03:12:19.019Z,-2.45
2019-01-24T03:14:46.455Z,-2.65
2019-01-24T03:17:13.675Z,-2.95
2019-01-24T03:19:40.926Z,-3.01
2019-01-24T03:22:08.150Z,-2.61
2019-01-24T03:24:38.340Z,-2.82
2019-01-24T03:27:05.879Z,-2.57
2019-01-24T03:29:33.143Z,-2.94
2019-01-24T03:32:00.377Z,-2.48
2019-01-24T03:34:27.635Z,-2.25
2019-01-24T03:36:54.852Z,-2.19
2019-01-24T03:39:22.109Z,-2.07
2019-01-24T03:41:49.401Z,-1.94
2019-01-24T03:44:16.764Z,-1.84
2019-01-24T03:46:44.019Z,-1.93
2019-01-24T03:49:11.406Z,-1.94
2019-01-24T03:51:38.697Z,-1.92
2019-01-24T03:54:05.934Z,-1.80
2019-01-24T03:56:33.373Z,-1.71
2019-01-24T03:59:00.584Z,-1.77
2019-01-24T04:01:27.813Z,-1.82
2019-01-24T04:03:55.182Z,-1.82
2019-01-24T04:06:22.428Z,-1.74
2019-01-24T04:08:49.635Z,-1.64
2019-01-24T04:11:16.892Z,-1.61
2019-01-24T04:13:44.161Z,-1.52
2019-01-24T04:16:11.380Z,-1.45
2019-01-24T04:18:38.615Z,-1.47
2019-01-24T04:21:05.848Z,-1.41
2019-01-24T04:23:33.078Z,-1.41
2019-01-24T04:26:00.431Z,-1.57
2019-01-24T04:28:27.680Z,-1.59
2019-01-24T04:30:55.134Z,-1.52
2019-01-24T04:33:22.360Z,-1.59
2019-01-24T04:35:49.811Z,-1.53
2019-01-24T04:38:17.011Z,-1.62
2019-01-24T04:40:44.219Z,-1.64
2019-01-24T04:43:11.461Z,-1.60
2019-01-24T04:45:38.717Z,-1.56
2019-01-24T04:48:05.997Z,-2.12
2019-01-24T04:50:33.195Z,-1.85
2019-01-24T04:53:00.451Z,-1.85
2019-01-24T04:55:27.711Z,-1.76
2019-01-24T04:57:55.199Z,-2.11
2019-01-24T05:00:30.161Z,-1.89
2019-01-24T05:02:57.487Z,-1.91
2019-01-24T05:05:28.035Z,-1.74
2019-01-24T05:07:54.426Z,-1.67
2019-01-24T05:10:21.818Z,-1.73
2019-01-24T05:12:49.055Z,-1.61
2019-01-24T05:15:16.604Z,-1.53
2019-01-24T05:17:43.884Z,-1.46
2019-01-24T05:20:11.932Z,-1.44
2019-01-24T05:22:39.151Z,-1.39
2019-01-24T05:25:08.591Z,-1.40
2019-01-24T05:27:35.804Z,-1.40
2019-01-24T05:30:04.615Z,-1.42
2019-01-24T05:32:31.866Z,-1.35
2019-01-24T05:34:59.099Z,-1.30
2019-01-24T05:37:26.346Z,-1.26
2019-01-24T05:39:53.562Z,-1.21
2019-01-24T05:42:20.880Z,-1.18
2019-01-24T05:44:48.115Z,-1.14
2019-01-24T05:47:15.330Z,-1.12
2019-01-24T05:49:42.555Z,-1.10
2019-01-24T05:52:09.843Z,-1.07
2019-01-24T05:54:37.091Z,-1.09
2019-01-24T05:57:04.338Z,-1.10
2019-01-24T05:59:31.555Z,-1.09
2019-01-24T06:01:59.400Z,-1.11
2019-01-24T06:04:26.627Z,-1.18
2019-01-24T06:06:53.844Z,-1.23
2019-01-24T06:09:21.102Z,-1.23
2019-01-24T06:11:48.569Z,-1.18
2019-01-24T06:14:15.771Z,-1.20
2019-01-24T06:16:43.194Z,-1.20
2019-01-24T06:19:10.398Z,-1.25
2019-01-24T06:21:37.603Z,-1.23
2019-01-24T06:24:04.864Z,-1.19
2019-01-24T06:26:32.122Z,-1.16
2019-01-24T06:28:59.332Z,-1.14
2019-01-24T06:31:26.612Z,-1.12
2019-01-24T06:33:53.961Z,-1.13
2019-01-24T06:36:21.168Z,-1.10
2019-01-24T06:38:48.519Z,-1.05
2019-01-24T06:41:15.750Z,-1.06
2019-01-24T06:43:42.955Z,-1.03
2019-01-24T06:46:10.194Z,-1.00
2019-01-24T06:48:37.728Z,-1.02
2019-01-24T06:51:04.940Z,-1.09
2019-01-24T06:53:32.228Z,-1.08
2019-01-24T06:55:59.481Z,-1.05
2019-01-24T06:58:26.692Z,-1.03
2019-01-24T07:00:53.909Z,-1.21
2019-01-24T07:03:21.158Z,-1.11
2019-01-24T07:05:48.630Z,-1.13
2019-01-24T07:08:15.838Z,-1.26
2019-01-24T07:10:43.065Z,-1.16
2019-01-24T07:13:10.610Z,-1.16
2019-01-24T07:15:38.727Z,-1.10
2019-01-24T07:18:06.125Z,-1.33
2019-01-24T07:20:33.327Z,-1.22
2019-01-24T07:23:00.717Z,-1.11
2019-01-24T07:25:28.335Z,-1.44
2019-01-24T07:27:55.952Z,-1.44
2019-01-24T07:30:23.192Z,-1.24
2019-01-24T07:32:50.528Z,-1.19
2019-01-24T07:35:17.722Z,-1.14
2019-01-24T07:37:45.082Z,-1.10
2019-01-24T07:40:13.935Z,-1.08
2019-01-24T07:42:41.168Z,-1.12
2019-01-24T07:45:13.259Z,-1.09
2019-01-24T07:47:40.494Z,-1.11
2019-01-24T07:50:09.203Z,-1.10
2019-01-24T07:52:36.502Z,-1.06
2019-01-24T07:55:04.018Z,-1.05
2019-01-24T07:57:31.258Z,-1.10
2019-01-24T07:59:58.512Z,-1.31
2019-01-24T08:02:25.740Z,-1.39
2019-01-24T08:04:52.936Z,-1.28
2019-01-24T08:07:20.199Z,-1.24
2019-01-24T08:09:50.334Z,-1.26
2019-01-24T08:12:17.632Z,-1.22
2019-01-24T08:14:46.503Z,-1.33
2019-01-24T08:17:13.846Z,-1.31
2019-01-24T08:19:41.080Z,-1.20
2019-01-24T08:22:08.417Z,-1.38
2019-01-24T08:24:35.671Z,-1.77
2019-01-24T08:27:02.921Z,-1.61
2019-01-24T08:29:30.154Z,-1.62
2019-01-24T08:31:57.368Z,-1.68
2019-01-24T08:34:24.615Z,-1.53
2019-01-24T08:36:51.832Z,-1.42
2019-01-24T08:39:21.982Z,-1.32
2019-01-24T08:41:49.215Z,-1.36
2019-01-24T08:44:16.472Z,-1.71
2019-01-24T08:46:43.695Z,-1.60
2019-01-24T08:49:10.964Z,-1.46
2019-01-24T08:51:38.186Z,-1.46
2019-01-24T08:54:05.450Z,-1.49
2019-01-24T08:56:32.704Z,-1.36
2019-01-24T08:58:59.907Z,-1.32
2019-01-24T09:01:27.397Z,-1.22
2019-01-24T09:03:54.654Z,-1.10
2019-01-24T09:06:22.690Z,-1.06
2019-01-24T09:08:51.749Z,-0.97
2019-01-24T09:11:19.018Z,-1.12
2019-01-24T09:13:46.196Z,-1.12
2019-01-24T09:16:13.490Z,-1.28
2019-01-24T09:18:40.725Z,-1.22
2019-01-24T09:21:07.956Z,-1.19
2019-01-24T09:23:35.170Z,-0.96
2019-01-24T09:26:02.631Z,-0.92
2019-01-24T09:28:29.865Z,-0.81
2019-01-24T09:30:57.088Z,-0.93
2019-01-24T09:33:24.324Z,-0.98
2019-01-24T09:35:51.584Z,-0.79
2019-01-24T09:38:18.810Z,-0.83
2019-01-24T09:40:46.117Z,-0.82
2019-01-24T09:43:13.351Z,-0.99
2019-01-24T09:45:40.540Z,-0.79
2019-01-24T09:48:08.134Z,-0.68
2019-01-24T09:50:35.455Z,-0.68
2019-01-24T09:53:02.896Z,-0.60
2019-01-24T09:55:30.118Z,-0.50
2019-01-24T09:57:57.344Z,-0.44
2019-01-24T10:00:32.206Z,-0.59
2019-01-24T10:02:59.721Z,-0.53
2019-01-24T10:05:27.195Z,-0.61
2019-01-24T10:07:54.608Z,-0.50
2019-01-24T10:10:22.502Z,-0.54
2019-01-24T10:12:50.461Z,-0.51
2019-01-24T10:15:18.344Z,-0.49
2019-01-24T10:17:45.591Z,-0.41
2019-01-24T10:20:14.483Z,-0.36
2019-01-24T10:22:41.823Z,-0.29
2019-01-24T10:25:12.246Z,-0.28
2019-01-24T10:27:39.570Z,-0.28
2019-01-24T10:30:08.575Z,-0.32
2019-01-24T10:32:35.937Z,-0.28
2019-01-24T10:35:03.612Z,-0.28
2019-01-24T10:37:32.800Z,-0.28
2019-01-24T10:40:00.349Z,-0.18
2019-01-24T10:42:27.750Z,-0.15
2019-01-24T10:44:55.005Z,-0.20
2019-01-24T10:47:22.224Z,-0.10
2019-01-24T10:49:49.485Z,-0.08
2019-01-24T10:52:16.678Z,-0.04
2019-01-24T10:54:43.937Z,-0.03
2019-01-24T10:57:11.239Z,-0.11
2019-01-24T10:59:38.479Z,-0.23
2019-01-24T11:02:05.699Z,-0.52
2019-01-24T11:04:32.947Z,-0.34
2019-01-24T11:07:00.155Z,-0.64
2019-01-24T11:09:27.399Z,-0.48
2019-01-24T11:11:54.672Z,-0.31
2019-01-24T11:14:22.294Z,-0.20
2019-01-24T11:16:49.482Z,-0.08
2019-01-24T11:19:16.727Z,-0.09
2019-01-24T11:21:44.011Z,0.01
2019-01-24T11:24:11.242Z,0.08
2019-01-24T11:26:38.481Z,-0.19
2019-01-24T11:29:06.057Z,-0.08
2019-01-24T11:31:33.477Z,0.01
2019-01-24T11:34:00.814Z,0.00
2019-01-24T11:36:28.078Z,0.01
2019-01-24T11:38:55.338Z,-0.09
2019-01-24T11:41:22.543Z,0.05
2019-01-24T11:43:49.790Z,-0.04
2019-01-24T11:46:17.215Z,-0.38
2019-01-24T11:48:44.504Z,-0.13
2019-01-24T11:51:11.740Z,-0.59
2019-01-24T11:53:38.985Z,-0.41
2019-01-24T11:56:07.567Z,-0.43
2019-01-24T11:58:35.010Z,-0.28
2019-01-24T12:01:02.213Z,-0.15
2019-01-24T12:03:29.777Z,-0.07
2019-01-24T12:05:57.027Z,-0.05
2019-01-24T12:08:24.264Z,0.02
2019-01-24T12:10:51.498Z,0.01
2019-01-24T12:13:18.789Z,0.00
2019-01-24T12:15:46.011Z,-0.04
2019-01-24T12:18:13.278Z,0.01
2019-01-24T12:20:40.539Z,-0.03
2019-01-24T12:23:07.794Z,0.06
2019-01-24T12:25:35.060Z,0.03
2019-01-24T12:28:02.623Z,0.09
2019-01-24T12:30:31.879Z,0.01
2019-01-24T12:32:59.459Z,0.07
2019-01-24T12:35:26.867Z,-0.21
2019-01-24T12:37:54.252Z,-0.06
2019-01-24T12:40:21.508Z,-0.19
2019-01-24T12:42:49.044Z,-0.12
2019-01-24T12:45:18.715Z,-0.07
2019-01-24T12:47:45.929Z,0.01
2019-01-24T12:50:14.627Z,0.07
2019-01-24T12:52:41.999Z,0.09
2019-01-24T12:55:10.309Z,0.15
2019-01-24T12:57:37.866Z,0.13
2019-01-24T13:00:08.273Z,0.14
2019-01-24T13:02:35.613Z,0.14
2019-01-24T13:05:03.657Z,0.14
2019-01-24T13:07:30.936Z,0.05
2019-01-24T13:09:58.220Z,-0.01
2019-01-24T13:12:25.431Z,0.09
2019-01-24T13:14:52.635Z,0.13
2019-01-24T13:17:19.867Z,0.17
2019-01-24T13:19:47.110Z,0.08
2019-01-24T13:22:14.351Z,0.12
2019-01-24T13:24:41.557Z,0.19
2019-01-24T13:27:08.812Z,0.16
2019-01-24T13:29:36.099Z,0.14
2019-01-24T13:32:03.632Z,-0.24
2019-01-24T13:34:30.987Z,-0.35
2019-01-24T13:36:58.172Z,-0.35
2019-01-24T13:39:25.552Z,-0.38
2019-01-24T13:41:53.113Z,-0.90
2019-01-24T13:44:20.364Z,-1.00
2019-01-24T13:46:47.749Z,-0.60
2019-01-24T13:49:15.101Z,-0.37
2019-01-24T13:51:42.357Z,-0.37
2019-01-24T13:54:09.571Z,-0.32
2019-01-24T13:56:37.152Z,-0.36
2019-01-24T13:59:04.482Z,-0.22
2019-01-24T14:01:31.770Z,-0.13
2019-01-24T14:04:13.132Z,-0.06
2019-01-24T14:06:40.349Z,-0.02
2019-01-24T14:09:09.344Z,0.04
2019-01-24T14:11:36.611Z,0.01
2019-01-24T14:14:04.912Z,0.01
2019-01-24T14:16:32.151Z,-0.20
2019-01-24T14:18:59.540Z,-0.16
2019-01-24T14:21:26.771Z,-0.48
2019-01-24T14:23:54.002Z,-0.38
2019-01-24T14:26:21.235Z,-0.26
2019-01-24T14:28:48.448Z,-0.16
2019-01-24T14:31:16.089Z,-0.09
2019-01-24T14:33:43.302Z,-0.03
2019-01-24T14:36:10.531Z,0.43
2019-01-24T14:38:37.883Z,0.55
2019-01-24T14:41:05.129Z,0.53
2019-01-24T14:43:32.335Z,0.48
2019-01-24T14:45:59.576Z,0.44
2019-01-24T14:48:26.817Z,0.27
2019-01-24T14:50:54.012Z,-0.58
2019-01-24T14:53:21.644Z,-0.58
2019-01-24T14:55:48.888Z,-0.67
2019-01-24T14:58:16.128Z,-0.49
2019-01-24T15:00:53.236Z,-0.32
2019-01-24T15:03:20.473Z,-0.24
2019-01-24T15:05:48.079Z,-0.26
2019-01-24T15:08:15.422Z,-0.22
2019-01-24T15:10:43.001Z,-0.16
2019-01-24T15:13:10.596Z,-0.09
2019-01-24T15:15:37.818Z,-0.08
2019-01-24T15:18:05.175Z,-0.06
2019-01-24T15:20:32.382Z,-0.05
2019-01-24T15:22:59.842Z,-0.06
2019-01-24T15:25:27.080Z,-0.28
2019-01-24T15:27:54.324Z,-0.24
2019-01-24T15:30:22.680Z,-0.17
2019-01-24T15:32:50.140Z,-0.13
2019-01-24T15:35:17.370Z,-0.09
2019-01-24T15:37:44.598Z,-0.09
2019-01-24T15:40:20.576Z,-0.55
2019-01-24T15:42:47.784Z,-1.00
2019-01-24T15:45:15.643Z,-0.76
2019-01-24T15:47:42.958Z,-0.60
2019-01-24T15:50:11.608Z,-0.57
2019-01-24T15:52:38.880Z,-0.78
2019-01-24T15:55:06.549Z,-0.66
2019-01-24T15:57:33.793Z,-0.54
2019-01-24T16:00:01.006Z,-0.46
2019-01-24T16:02:28.306Z,-0.38
2019-01-24T16:04:55.513Z,-0.34
2019-01-24T16:07:22.922Z,-0.45
2019-01-24T16:09:50.175Z,-1.19
2019-01-24T16:12:17.384Z,-0.95
2019-01-24T16:14:44.649Z,-0.73
2019-01-24T16:17:11.897Z,-0.99
2019-01-24T16:19:39.143Z,-1.07
2019-01-24T16:22:06.379Z,-0.94
2019-01-24T16:24:33.616Z,-0.81
2019-01-24T16:27:00.863Z,-0.69
2019-01-24T16:29:28.077Z,-0.61
2019-01-24T16:31:55.316Z,-0.56
2019-01-24T16:34:22.694Z,-0.51
2019-01-24T16:36:49.976Z,-0.67
2019-01-24T16:39:17.165Z,-0.95
2019-01-24T16:41:44.445Z,-0.75
2019-01-24T16:44:11.673Z,-0.64
2019-01-24T16:46:38.887Z,-0.59
2019-01-24T16:49:06.132Z,-0.52
2019-01-24T16:51:33.459Z,-0.49
2019-01-24T16:54:00.750Z,-0.47
2019-01-24T16:56:27.982Z,-0.45
2019-01-24T16:58:55.270Z,-0.69
2019-01-24T17:01:22.863Z,-1.11
2019-01-24T17:03:50.114Z,-1.17
2019-01-24T17:06:17.705Z,-1.37
2019-01-24T17:08:46.175Z,-1.72
2019-01-24T17:11:13.380Z,-1.72
2019-01-24T17:13:40.631Z,-1.36
2019-01-24T17:16:07.959Z,-1.47
2019-01-24T17:18:35.165Z,-1.37
2019-01-24T17:21:03.184Z,-1.22
2019-01-24T17:23:30.414Z,-1.07
2019-01-24T17:25:57.641Z,-0.99
2019-01-24T17:28:24.857Z,-0.93
2019-01-24T17:30:52.165Z,-0.84
2019-01-24T17:33:19.678Z,-0.79
2019-01-24T17:35:46.924Z,-0.76
2019-01-24T17:38:15.483Z,-0.73
2019-01-24T17:40:42.939Z,-1.13
2019-01-24T17:43:10.548Z,-0.94
2019-01-24T17:45:37.837Z,-0.82
2019-01-24T17:48:05.689Z,-0.92
2019-01-24T17:50:32.894Z,-0.82
2019-01-24T17:53:00.219Z,-0.72
2019-01-24T17:55:35.649Z,-0.66
2019-01-24T17:58:04.100Z,-0.58
2019-01-24T18:00:34.023Z,-0.58
2019-01-24T18:03:01.938Z,-0.51
2019-01-24T18:05:29.174Z,-0.68
2019-01-24T18:07:56.398Z,-0.57
2019-01-24T18:10:24.366Z,-0.69
2019-01-24T18:12:51.566Z,-0.64
2019-01-24T18:15:21.383Z,-0.71
2019-01-24T18:17:48.587Z,-0.74
2019-01-24T18:20:18.289Z,-0.71
2019-01-24T18:22:45.775Z,-0.78
2019-01-24T18:25:12.977Z,-1.12
2019-01-24T18:27:40.195Z,-1.54
2019-01-24T18:30:11.479Z,-1.46
2019-01-24T18:32:38.696Z,-1.32
2019-01-24T18:35:06.203Z,-1.35
2019-01-24T18:37:33.451Z,-1.16
2019-01-24T18:40:00.727Z,-1.02
2019-01-24T18:42:27.984Z,-0.90
2019-01-24T18:44:55.273Z,-0.81
2019-01-24T18:47:22.536Z,-0.74
2019-01-24T18:49:50.092Z,-0.68
2019-01-24T18:52:17.379Z,-0.60
2019-01-24T18:54:44.665Z,-0.56
2019-01-24T18:57:11.939Z,-0.54
2019-01-24T18:59:39.271Z,-0.54
2019-01-24T19:02:06.588Z,-0.54
2019-01-24T19:04:34.051Z,-0.74
2019-01-24T19:07:01.296Z,-0.63
2019-01-24T19:09:28.570Z,-1.25
2019-01-24T19:11:55.807Z,-1.32
2019-01-24T19:14:23.035Z,-1.15
2019-01-24T19:16:50.468Z,-1.33
2019-01-24T19:19:17.696Z,-1.11
2019-01-24T19:21:45.227Z,-1.15
2019-01-24T19:24:12.467Z,-1.12
2019-01-24T19:26:39.838Z,-0.94
2019-01-24T19:29:07.080Z,-0.99
2019-01-24T19:31:34.411Z,-0.86
2019-01-24T19:34:01.673Z,-0.75
2019-01-24T19:36:28.948Z,-0.81
2019-01-24T19:38:56.184Z,-0.74
2019-01-24T19:41:23.436Z,-0.71
2019-01-24T19:43:50.656Z,-1.55
2019-01-24T19:46:17.901Z,-1.17
2019-01-24T19:48:45.118Z,-0.94
2019-01-24T19:51:12.351Z,-0.81
2019-01-24T19:53:39.686Z,-0.74
2019-01-24T19:56:07.255Z,-0.77
2019-01-24T19:58:37.547Z,-0.73
2019-01-24T20:01:05.294Z,-0.75
2019-01-24T20:03:33.030Z,-0.69
2019-01-24T20:06:01.174Z,-0.62
2019-01-24T20:08:28.755Z,-0.58
2019-01-24T20:10:56.547Z,-0.55
2019-01-24T20:13:24.434Z,-0.55
2019-01-24T20:15:52.274Z,-1.09
2019-01-24T20:18:20.500Z,-1.40
2019-01-24T20:20:48.100Z,-1.20
2019-01-24T20:23:16.624Z,-0.97
2019-01-24T20:25:43.869Z,-1.23
2019-01-24T20:28:11.155Z,-1.61
2019-01-24T20:30:38.415Z,-1.59
2019-01-24T20:33:05.622Z,-1.62
2019-01-24T20:35:38.582Z,-1.43
2019-01-24T20:38:06.745Z,-1.21
2019-01-24T20:40:34.381Z,-1.12
2019-01-24T20:43:02.087Z,-0.99
2019-01-24T20:45:29.699Z,-0.95
2019-01-24T20:47:57.469Z,-1.21
2019-01-24T20:50:24.950Z,-1.10
2019-01-24T20:52:52.452Z,-1.07
2019-01-24T20:55:20.402Z,-1.28
2019-01-24T20:57:48.123Z,-1.47
2019-01-24T21:00:17.957Z,-1.47
2019-01-24T21:02:45.768Z,-1.36
2019-01-24T21:05:15.841Z,-1.95
2019-01-24T21:07:43.119Z,-1.81
2019-01-24T21:10:13.415Z,-1.64
2019-01-24T21:12:40.732Z,-1.85
2019-01-24T21:15:09.608Z,-2.49
2019-01-24T21:17:36.847Z,-2.07
2019-01-24T21:20:04.940Z,-1.77
2019-01-24T21:22:32.194Z,-1.71
2019-01-24T21:24:59.485Z,-2.06
2019-01-24T21:27:26.732Z,-1.93
2019-01-24T21:29:53.976Z,-1.85
2019-01-24T21:32:21.250Z,-2.03
2019-01-24T21:34:48.486Z,-1.90
2019-01-24T21:37:15.708Z,-1.86
2019-01-24T21:39:42.968Z,-2.40
2019-01-24T21:42:10.210Z,-2.37
2019-01-24T21:44:37.461Z,-2.30
2019-01-24T21:47:04.743Z,-1.95
2019-01-24T21:49:32.005Z,-1.85
2019-01-24T21:51:59.259Z,-1.93
2019-01-24T21:54:26.500Z,-1.75
2019-01-24T21:56:53.756Z,-2.05
2019-01-24T21:59:21.015Z,-1.97
2019-01-24T22:01:48.256Z,-1.75
2019-01-24T22:04:15.510Z,-1.62
2019-01-24T22:06:42.748Z,-1.61
2019-01-24T22:09:10.077Z,-1.64
2019-01-24T22:11:37.369Z,-1.63
2019-01-24T22:14:04.797Z,-1.61
2019-01-24T22:16:32.044Z,-1.53
2019-01-24T22:18:59.295Z,-1.72
2019-01-24T22:21:26.517Z,-1.77
2019-01-24T22:23:53.781Z,-1.63
2019-01-24T22:26:21.005Z,-1.60
2019-01-24T22:28:48.257Z,-1.70
2019-01-24T22:31:15.500Z,-1.84
2019-01-24T22:33:42.787Z,-2.09
2019-01-24T22:36:10.021Z,-1.88
2019-01-24T22:38:37.248Z,-1.89
2019-01-24T22:41:04.713Z,-1.69
2019-01-24T22:43:31.956Z,-1.83
2019-01-24T22:45:59.189Z,-2.53
2019-01-24T22:48:26.757Z,-2.28
2019-01-24T22:50:54.244Z,-2.23
2019-01-24T22:53:21.498Z,-2.32
2019-01-24T22:55:48.752Z,-2.09
2019-01-24T22:58:16.075Z,-1.99
2019-01-24T23:01:02.462Z,-1.92
2019-01-24T23:03:51.577Z,-1.84
2019-01-24T23:06:18.961Z,-1.80
2019-01-24T23:08:46.242Z,-1.80
2019-01-24T23:11:13.482Z,-1.96
2019-01-24T23:13:40.709Z,-2.47
2019-01-24T23:16:08.010Z,-2.31
2019-01-24T23:18:35.368Z,-2.24
2019-01-24T23:21:02.713Z,-2.29
2019-01-24T23:23:30.064Z,-2.43
2019-01-24T23:25:57.305Z,-2.41
2019-01-24T23:28:24.659Z,-2.18
2019-01-24T23:30:51.879Z,-2.24
2019-01-24T23:33:19.133Z,-2.66
2019-01-24T23:35:46.349Z,-2.26
2019-01-24T23:38:13.620Z,-2.00
2019-01-24T23:40:40.855Z,-1.85
2019-01-24T23:43:08.180Z,-1.80
2019-01-24T23:45:35.444Z,-1.78
2019-01-24T23:48:02.669Z,-1.71
2019-01-24T23:50:29.990Z,-1.60
2019-01-24T23:52:57.270Z,-1.54
2019-01-24T23:55:24.513Z,-1.47
2019-01-24T23:57:51.813Z,-1.41
